Terminal Aerodrome Forecast
Issued by NWS

Home | Current Version | Previous Version | Text Only | Print | Product List | Glossary On
Versions: 1 2 3 4 5 6 7 8 9 10 11 12 13 14
000
FTUS45 KTFX 022300
TAFCTB
TAF
KCTB 022337Z 0300/0324 36018G24KT P6SM SCT015 BKN025
      TEMPO 0300/0303 3SM -SN BLSN BKN015
     FM030300 36013KT P6SM VCSH SCT020 BKN040
     FM030600 35010KT P6SM BKN050
     FM031500 27008KT P6SM SCT060 BKN120=

USA.gov is the U.S. government's official web portal to all federal, state and local government web resources and services.